sim
Sign-in with your pilot id or email,
or register
Callsign
Passwort

Schedule Details

Flight Number: EWG234 (1)
Departure: Munich Airport (EDDM) at 08:20
Arrival: Montego Bay Sangster International Airport (MKJS) at 20:00
Route: Eurowings Passenger Schedule. Enter filed route here before submitting Pirep.

Weather Information
Getting current METAR information for EDDM 010450Z 05002KT 0600 R08L/0900U R08R/0600U FG SCT001 03/03 Q1009 BECMG 0500 BKN001
Getting current METAR information for MKJS 010500Z 16008KT 9999 -SHRA VCSH FEW020CB 26/22 Q1012

Schedule Frequency

Route Map